Atlanta, Georgia
Traffic Map
Current Weather Conditions
Atlanta, Georgia
Broken Clouds
Broken Clouds
80°
Feels Like: 81°
Wind Chill: 80° Ceiling: 25000
Heat Index: 81° Visibility: 10mi
Dew Point: 60° Wind: 6mph
Humidity: 50% Direction: 320° (NW)
Pressure: 29.95in Gusts: 0mph
Raw Report DataKATL 310152Z 32005KT 10SM FEW150 BKN250 27/16 A2995 RMK AO2 SLP132 T02670156
Traffic Incident Summary
Active as of:
Severity:
Category:
InformationThere was an issue retrieving the traffic information for this location. Please try a different location or try again shortly.
Advertisements
Track Severe Weather on mobile